| time (UTC) | temp F | wind direction | speed MPH | gust MPH | rain 1hr in | rain 24hr in | rain mn in | humidity % | barometer mb |
| 20260510192232 | 82 | 108 | 0.0 | 0.0 | 0.00 | 0.14 | 0.00 | 74 | 1014.9 |
| 20260510191248 | 82 | 128 | 0.0 | 0.0 | 0.00 | 0.15 | 0.00 | 74 | 1014.7 |
| 20260510185150 | 81 | 162 | 0.0 | 0.0 | 0.00 | 0.16 | 0.00 | 74 | 1014.7 |
| 20260510184210 | 81 | 96 | 0.0 | 0.0 | 0.00 | 0.18 | 0.00 | 74 | 1014.9 |
| 20260510183154 | 80 | 92 | 0.0 | 0.0 | 0.00 | 0.20 | 0.00 | 74 | 1015.1 |
| 20260510182152 | 81 | 105 | 0.0 | 0.0 | 0.00 | 0.20 | 0.00 | 74 | 1015.3 |
| 20260510181134 | 81 | 99 | 0.0 | 0.0 | 0.00 | 0.22 | 0.00 | 75 | 1015.4 |
| 20260510180135 | 80 | 102 | 0.0 | 0.0 | 0.00 | 0.24 | 0.00 | 74 | 1015.7 |
| 20260510174006 | 80 | 79 | 0.0 | 0.0 | 0.00 | 0.26 | 0.00 | 74 | 1015.8 |
| 20260510172941 | 79 | 147 | 0.0 | 0.0 | 0.00 | 0.27 | 0.00 | 74 | 1015.9 |
| 20260510171950 | 79 | 128 | 0.0 | 0.0 | 0.00 | 0.30 | 0.00 | 74 | 1016.0 |
| 20260510171011 | 79 | 133 | 0.0 | 0.0 | 0.00 | 0.37 | 0.00 | 74 | 1016.2 |
| 20260510170004 | 79 | 139 | 0.0 | 0.0 | 0.00 | 0.39 | 0.00 | 74 | 1016.3 |
| 20260510165015 | 79 | 169 | 0.0 | 0.0 | 0.00 | 0.48 | 0.00 | 74 | 1016.2 |
| 20260510164027 | 79 | 74 | 0.0 | 0.0 | 0.00 | 0.52 | 0.00 | 74 | 1016.3 |
| 20260510163012 | 78 | 161 | 0.0 | 0.0 | 0.00 | 0.54 | 0.00 | 73 | 1016.2 |
| 20260510161944 | 79 | 102 | 0.0 | 0.0 | 0.00 | 0.55 | 0.00 | 74 | 1016.3 |
| 20260510160946 | 79 | 123 | 0.0 | 0.0 | 0.00 | 0.58 | 0.00 | 72 | 1016.3 |
| 20260510154822 | 78 | 60 | 0.0 | 0.0 | 0.00 | 0.70 | 0.00 | 67 | 1015.9 |
| 20260510153839 | 78 | 141 | 0.0 | 0.0 | 0.00 | 0.73 | 0.00 | 64 | 1015.9 |
| 20260510151631 | 76 | 85 | 0.0 | 0.0 | 0.00 | 0.74 | 0.00 | 57 | 1016.0 |
| 20260510150620 | 76 | 82 | 0.0 | 0.0 | 0.00 | 0.74 | 0.00 | 51 | 1016.2 |
| 20260510145635 | 76 | 109 | 0.0 | 0.0 | 0.00 | 0.74 | 0.00 | 43 | 1016.2 |
| 20260510144608 | 75 | 83 | 0.0 | 0.0 | 0.00 | 0.74 | 0.00 | 31 | 1016.3 |
| 20260510143548 | 74 | 92 | 0.0 | 0.0 | 0.00 | 0.74 | 0.00 | 18 | 1016.1 |
| 20260510142514 | 74 | 114 | 0.0 | 0.0 | 0.00 | 0.74 | 0.00 | 1 | 1016.1 |
| 20260510141502 | 73 | 103 | 0.0 | 0.0 | 0.00 | 0.77 | 0.00 | 1 | 1016.0 |
| 20260510140450 | 73 | 46 | 0.0 | 0.0 | 0.00 | 0.86 | 0.00 | 1 | 1015.9 |
| 20260510135421 | 72 | 102 | 0.0 | 0.0 | 0.00 | 0.87 | 0.00 | 1 | 1016.1 |
| 20260510134403 | 71 | 102 | 0.0 | 0.0 | 0.00 | 0.87 | 0.00 | 1 | 1016.0 |
| 20260510133348 | 71 | 99 | 0.0 | 0.0 | 0.00 | 0.87 | 0.00 | 1 | 1015.9 |
| 20260510132350 | 71 | 103 | 0.0 | 0.0 | 0.00 | 0.87 | 0.00 | 1 | 1015.8 |
| 20260510131319 | 70 | 61 | 0.0 | 0.0 | 0.00 | 0.87 | 0.00 | 1 | 1015.7 |
| 20260510130323 | 70 | 68 | 0.0 | 0.0 | 0.00 | 0.87 | 0.00 | 1 | 1015.4 |
| 20260510125317 | 69 | 57 | 0.0 | 0.0 | 0.00 | 0.87 | 0.00 | 1 | 1015.3 |
| 20260510123146 | 69 | 82 | 0.0 | 0.0 | 0.00 | 0.87 | 0.00 | 1 | 1014.9 |
| 20260510122113 | 69 | 63 | 0.0 | 0.0 | 0.00 | 0.87 | 0.00 | 1 | 1014.8 |
| 20260510012945 | 68 | 161 | 0.0 | 0.0 | 0.00 | 0.87 | 0.87 | 1 | 1011.9 |
| 20260510010816 | 69 | 163 | 0.0 | 0.0 | 0.00 | 0.87 | 0.87 | 1 | 1011.7 |
| 20260510005756 | 69 | 183 | 0.0 | 0.0 | 0.00 | 0.87 | 0.87 | 1 | 1011.8 |
| 20260510004816 | 69 | 142 | 0.0 | 0.0 | 0.00 | 0.86 | 0.87 | 1 | 1011.8 |
| 20260510003835 | 69 | 145 | 0.0 | 0.0 | 0.00 | 0.86 | 0.86 | 1 | 1011.8 |
| 20260510002818 | 69 | 200 | 0.0 | 0.0 | 0.00 | 0.86 | 0.86 | 1 | 1011.9 |
| 20260510001822 | 69 | 177 | 0.0 | 0.0 | 0.00 | 0.86 | 0.86 | 1 | 1011.7 |
| 20260510000807 | 69 | 132 | 0.0 | 0.0 | 0.00 | 0.86 | 0.86 | 1 | 1011.6 |
| 20260509235739 | 69 | 195 | 0.0 | 0.0 | 0.00 | 0.86 | 0.86 | 1 | 1011.8 |
| 20260509234720 | 69 | 137 | 0.0 | 0.0 | 0.06 | 0.86 | 0.86 | 1 | 1011.6 |
| 20260509233739 | 69 | 172 | 0.0 | 0.0 | 0.14 | 0.84 | 0.86 | 1 | 1011.7 |
| 20260509232727 | 69 | 183 | 0.0 | 0.0 | 0.00 | 0.84 | 0.84 | 1 | 1012.1 |
| 20260509230522 | 69 | 176 | 0.0 | 0.0 | 0.00 | 0.83 | 0.83 | 1 | 1012.1 |
| 20260509225542 | 69 | 179 | 0.0 | 0.0 | 0.00 | 0.82 | 0.83 | 1 | 1011.6 |
| 20260509224509 | 69 | 208 | 0.0 | 0.0 | 0.00 | 0.82 | 0.82 | 1 | 1011.7 |
| 20260509223500 | 69 | 207 | 0.0 | 0.0 | 0.00 | 0.82 | 0.82 | 1 | 1011.5 |
| 20260509222424 | 69 | 181 | 0.0 | 0.0 | 0.00 | 0.82 | 0.82 | 1 | 1010.9 |
| 20260509221414 | 69 | 181 | 0.0 | 0.0 | 0.00 | 0.82 | 0.82 | 1 | 1010.6 |
| 20260509220422 | 69 | 182 | 0.0 | 0.0 | 0.00 | 0.82 | 0.82 | 1 | 1011.0 |
| 20260509215352 | 69 | 208 | 0.0 | 0.0 | 0.00 | 0.81 | 0.81 | 1 | 1011.2 |
| 20260509213228 | 69 | 181 | 0.0 | 0.0 | 0.00 | 0.81 | 0.81 | 1 | 1010.8 |
| 20260509212239 | 69 | 182 | 0.0 | 0.0 | 0.00 | 0.81 | 0.81 | 1 | 1010.9 |
| 20260509211224 | 69 | 177 | 0.0 | 0.0 | 0.00 | 0.81 | 0.81 | 1 | 1010.7 |
| 20260509210234 | 69 | 228 | 0.0 | 0.0 | 0.00 | 0.81 | 0.81 | 1 | 1010.5 |
| 20260509204132 | 69 | 197 | 0.0 | 0.0 | 0.00 | 0.81 | 0.81 | 1 | 1010.4 |
| 20260509203139 | 68 | 198 | 0.0 | 0.0 | 0.07 | 0.81 | 0.81 | 1 | 1011.1 |
| 20260509202110 | 68 | 198 | 0.0 | 0.0 | 0.06 | 0.80 | 0.80 | 1 | 1011.4 |
| 20260509200029 | 68 | 198 | 0.0 | 0.0 | 0.10 | 0.77 | 0.78 | 1 | 1011.8 |
| 20260509195037 | 68 | 197 | 0.0 | 0.0 | 0.09 | 0.76 | 0.77 | 1 | 1011.7 |
| 20260509194015 | 68 | 94 | 0.0 | 0.0 | 0.14 | 0.73 | 0.74 | 1 | 1011.8 |
| 20260509193014 | 68 | 213 | 0.0 | 0.0 | 0.06 | 0.72 | 0.73 | 1 | 1012.3 |